Details From VHHH - Hong Kong Intl
To ZGSZ - Baoan Intl
Flight Number -
Tags Generated
Created
Modified
Stats Distance 22 nm / 41 km
Max Altitude 0 ft / 0 m
Waypoints 2
Social Downloads 5
Likes 0
Share VATSIM

Download

Looking for another format? Having issues loading an existing format? Contact us
Advertisement - Login to hide

Notes

Generated

Route

VHHH ZGSZ

ID Type Via Altitude Latitude Longitude Leg Dist Tot Dist Heading (true) Name
O VHHH APT - 0 ft / 0 m 22.29628˚ 113.89799˚ - 0 nm - -
O ZGSZ APT - 0 ft / 0 m 22.65296˚ 113.80315˚ 22 nm 22 nm 346° / 346° -

Altitude Profile

Advertisement - Login to hide

VHHH

Details ICAO VHHH (HKG)
Name Hong Kong Intl
Region Hong Kong
Timezone Unknown (UTC+0.0)
Stats Elevation 28 ft / 9 m (AMSL)
Location 22.308995° 113.914610°
Runways 2
Magnetic Variation 2.822° W

METAR

VHHH 171230Z 02008KT 8000 FEW045 12/04 Q1027 NOSIG

Decode

TAF

TAF VHHH 171100Z 1712/1818 01010KT 8000 FEW040 TX17/1806Z TN10/1723Z

Decode

Departure Runways

ID Width Length Bearing (true) Bearing (mag) Surface Threshold Offset Overrun Length
07L 197 ft / 60 m 12,457 ft / 3,797 m 70.79° 73.61° Asphalt 564 ft / 172 m 866 ft / 264 m
07R 197 ft / 60 m 12,458 ft / 3,797 m 70.79° 73.61° Asphalt 525 ft / 160 m 886 ft / 270 m
25L 197 ft / 60 m 12,458 ft / 3,797 m 250.80° 253.62° Asphalt 0 ft / 0 m 840 ft / 256 m
25R 197 ft / 60 m 12,457 ft / 3,797 m 250.80° 253.62° Asphalt 581 ft / 177 m 860 ft / 262 m

ZGSZ

Details ICAO ZGSZ (SZX)
Name BAOAN INTL
Region China
Timezone Asia/Shanghai (UTC+8.0)
Stats Elevation 13 ft / 4 m (AMSL)
Location 22.639259° 113.810663°
Runways 1
Magnetic Variation 2.862° W

METAR

ZGSZ 171200Z 02006MPS 8000 NSC 11/03 Q1027 NOSIG

Decode

TAF

Not found

Destination Runways

ID Width Length Bearing (true) Bearing (mag) Surface Threshold Offset Overrun Length
15 148 ft / 45 m 11,209 ft / 3,416 m 153.15° 156.01° Concrete 0 ft / 0 m 197 ft / 60 m
33 148 ft / 45 m 11,209 ft / 3,416 m 333.15° 336.01° Concrete 0 ft / 0 m 197 ft / 60 m

Approach Navaids

Runway Type Ident Frequency Range Bearing (true) Bearing (mag) Slope Elevation
15 Localiser IQJ 111.30 MHz 18 nm / 33 km 153.14° 156.00° - 13 ft / 4 m (AMSL)
15 Glidescope IQJ 111.30 MHz 10 nm / 19 km 153.15° 156.01° 3.00° 13 ft / 4 m (AMSL)
15 DME IQJ 111.30 MHz 18 nm / 33 km - - - 33 ft / 10 m (AMSL)
33 Localiser IMH 110.70 MHz 18 nm / 33 km 333.13° 335.99° - 13 ft / 4 m (AMSL)
33 Glidescope IMH 110.70 MHz 10 nm / 19 km 333.15° 336.01° 3.00° 13 ft / 4 m (AMSL)
33 DME IMH 110.70 MHz 18 nm / 33 km - - - 26 ft / 8 m (AMSL)

Popular Alternatives